Time;durP1;ratioP1;P1;durP2;ratioP2;P2;SDS_P1;SDS_P2;PMS_P1;PMS_P2;Temp;Humidity;BMP_temperature;BMP_pressure;BME280_temperature;BME280_humidity;BME280_pressure;Samples;Min_cycle;Max_cycle;Signal;HPM_P1;HPM_P2
2020/12/19 00:02:18;;;;;;;20.38;12.30;;;;;;;3.50;100.00;100949.59;5002284;28;20088;-65
2020/12/19 00:05:02;;;;;;;21.42;11.75;;;;;;;3.54;100.00;100948.50;4989163;28;20088;-65
2020/12/19 00:07:46;;;;;;;17.52;10.60;;;;;;;3.56;100.00;100956.31;5002515;28;20548;-65
2020/12/19 00:10:30;;;;;;;16.38;10.75;;;;;;;3.54;100.00;100947.66;5002238;28;20068;-64
2020/12/19 00:13:14;;;;;;;17.52;10.82;;;;;;;3.52;100.00;100936.31;5017052;28;20044;-65
2020/12/19 00:15:58;;;;;;;17.52;10.90;;;;;;;3.52;100.00;100928.41;5002333;28;20129;-65
2020/12/19 00:18:43;;;;;;;26.77;12.88;;;;;;;3.53;100.00;100933.59;5017212;28;20049;-65
2020/12/19 00:21:34;;;;;;;18.02;11.55;;;;;;;3.56;100.00;100940.50;4988140;28;20081;-65
2020/12/19 00:24:18;;;;;;;60.05;12.68;;;;;;;3.54;100.00;100934.47;5002131;28;20052;-65
2020/12/19 00:27:02;;;;;;;28.38;12.32;;;;;;;3.50;100.00;100922.38;4988155;28;20115;-65
2020/12/19 00:29:45;;;;;;;20.27;12.25;;;;;;;3.52;100.00;100923.13;5002173;28;20080;-65
2020/12/19 00:32:30;;;;;;;35.50;14.32;;;;;;;3.52;100.00;100918.72;5016919;28;20453;-65
2020/12/19 00:35:14;;;;;;;19.10;12.00;;;;;;;3.56;100.00;100917.63;5016644;28;20081;-65
2020/12/19 00:37:58;;;;;;;22.02;11.05;;;;;;;3.58;100.00;100909.63;5001737;28;20057;-65
2020/12/19 00:40:42;;;;;;;20.23;11.35;;;;;;;3.60;100.00;100911.25;5016531;28;20557;-65
2020/12/19 00:43:26;;;;;;;18.65;11.63;;;;;;;3.61;100.00;100907.69;5016432;28;20045;-65
2020/12/19 00:46:14;;;;;;;20.92;12.30;;;;;;;3.65;100.00;100909.19;5016327;28;20065;-65
2020/12/19 00:48:58;;;;;;;17.20;10.88;;;;;;;3.62;100.00;100903.25;5016370;28;20462;-65
2020/12/19 00:51:42;;;;;;;15.35;10.32;;;;;;;3.60;100.00;100900.72;5016330;28;20088;-65
2020/12/19 00:54:26;;;;;;;22.65;12.57;;;;;;;3.59;100.00;100892.88;5001790;28;20095;-65
2020/12/19 00:57:10;;;;;;;;;;;;;;;3.59;100.00;100900.78;5001741;28;20186;-65
2020/12/19 00:59:54;;;;;;;41.63;12.05;;;;;;;3.59;100.00;100884.97;5016488;28;19919;-65
2020/12/19 01:02:38;;;;;;;19.50;11.73;;;;;;;3.60;100.00;100884.91;5016555;28;20052;-65
2020/12/19 01:05:22;;;;;;;20.95;12.18;;;;;;;3.63;100.00;100899.66;5001717;28;20474;-65
2020/12/19 01:08:06;;;;;;;37.47;12.90;;;;;;;3.62;100.00;100892.69;5016073;28;20092;-65
2020/12/19 01:10:50;;;;;;;19.98;11.57;;;;;;;3.64;100.00;100896.13;5016012;28;20056;-65
2020/12/19 01:13:34;;;;;;;17.90;11.80;;;;;;;3.62;100.00;100892.69;5001463;28;20129;-65
2020/12/19 01:16:24;;;;;;;49.63;15.80;;;;;;;3.64;100.00;100906.66;5015851;28;20104;-65
2020/12/19 01:19:08;;;;;;;22.58;12.35;;;;;;;3.65;100.00;100889.91;5001032;28;20052;-65
2020/12/19 01:21:52;;;;;;;23.40;10.68;;;;;;;3.62;100.00;100890.94;5000854;28;20472;-65
2020/12/19 01:24:36;;;;;;;19.88;10.95;;;;;;;3.61;100.00;100880.44;5001196;28;20088;-65
2020/12/19 01:27:20;;;;;;;19.15;11.25;;;;;;;3.59;100.00;100885.84;5001018;28;20092;-66
2020/12/19 01:30:04;;;;;;;20.10;10.38;;;;;;;3.58;100.00;100883.28;5000770;28;20446;-65
2020/12/19 01:32:50;;;;;;;21.33;10.10;;;;;;;3.58;100.00;100875.34;5000786;28;20045;-65
2020/12/19 01:35:34;;;;;;;16.15;10.63;;;;;;;3.57;100.00;100877.13;5015648;28;20127;-65
2020/12/19 01:38:18;;;;;;;24.27;11.80;;;;;;;3.58;100.00;100870.09;5015737;28;20195;-65
2020/12/19 01:41:02;;;;;;;18.17;11.10;;;;;;;3.57;100.00;100879.78;5000757;28;20069;-65
2020/12/19 01:43:54;;;;;;;18.20;11.00;;;;;;;3.58;100.00;100885.91;5000546;28;20053;-65
2020/12/19 01:46:41;;;;;;;17.60;10.88;;;;;;;3.60;100.00;100878.75;5000886;28;20049;-65
2020/12/19 01:49:28;;;;;;;33.53;15.20;;;;;;;3.67;100.00;100888.03;5000675;28;20495;-65
2020/12/19 01:52:13;;;;;;;17.65;11.13;;;;;;;3.71;100.00;100884.28;5000348;28;20049;-65
2020/12/19 01:54:58;;;;;;;16.77;10.43;;;;;;;3.70;100.00;100877.31;5015106;28;20048;-65
2020/12/19 01:57:42;;;;;;;14.65;9.77;;;;;;;3.72;100.00;100878.06;5000195;28;20053;-65
2020/12/19 02:00:27;;;;;;;17.65;11.50;;;;;;;3.74;100.00;100876.22;5015306;28;20072;-65
2020/12/19 02:03:11;;;;;;;15.93;10.75;;;;;;;3.74;100.00;100876.22;5015247;28;20048;-64
2020/12/19 02:05:55;;;;;;;;;;;;;;;3.74;100.00;100881.50;5015293;28;20100;-65
2020/12/19 02:08:39;;;;;;;14.53;9.47;;;;;;;3.75;100.00;100872.63;5000085;28;19924;-65
2020/12/19 02:11:23;;;;;;;15.50;9.43;;;;;;;3.72;100.00;100867.50;5015078;28;20044;-65
2020/12/19 02:14:08;;;;;;;16.00;9.73;;;;;;;3.71;100.00;100866.69;5000265;28;20053;-65
2020/12/19 02:16:57;;;;;;;16.38;10.60;;;;;;;3.71;100.00;100863.19;4999737;28;20084;-65
2020/12/19 02:19:42;;;;;;;17.70;10.90;;;;;;;3.72;100.00;100856.97;5014449;28;20112;-64
2020/12/19 02:22:25;;;;;;;15.50;10.60;;;;;;;3.72;100.00;100851.69;4999690;28;20088;-65
2020/12/19 02:25:10;;;;;;;15.95;10.55;;;;;;;3.75;100.00;100841.00;5014718;28;20051;-65
2020/12/19 02:27:54;;;;;;;14.38;9.18;;;;;;;3.75;100.00;100836.56;5014792;28;20052;-65
2020/12/19 02:30:38;;;;;;;14.95;10.30;;;;;;;3.78;100.00;100827.63;4999935;28;20052;-65
2020/12/19 02:33:22;;;;;;;16.83;10.07;;;;;;;3.79;100.00;100834.59;4986413;28;20467;-65
2020/12/19 02:36:06;;;;;;;15.43;10.00;;;;;;;3.80;100.00;100823.09;5014370;28;20096;-65
2020/12/19 02:38:51;;;;;;;15.55;10.23;;;;;;;3.84;100.00;100835.19;4999782;28;20077;-65
2020/12/19 02:41:42;;;;;;;13.75;9.70;;;;;;;3.85;100.00;100831.63;5014705;28;20142;-65
2020/12/19 02:44:26;;;;;;;15.32;9.70;;;;;;;3.87;100.00;100821.81;5014515;28;20180;-65
2020/12/19 02:47:10;;;;;;;13.80;9.27;;;;;;;3.89;100.00;100822.56;4999547;28;20064;-65
2020/12/19 02:49:54;;;;;;;14.02;9.88;;;;;;;3.90;100.00;100819.00;5014198;28;20119;-65
2020/12/19 02:52:39;;;;;;;13.15;9.23;;;;;;;3.92;100.00;100819.75;5014363;28;20053;-65
2020/12/19 02:55:23;;;;;;;11.18;8.20;;;;;;;3.88;100.00;100813.78;4999642;28;20101;-65
2020/12/19 02:58:08;;;;;;;11.65;8.70;;;;;;;3.86;100.00;100813.03;5014011;28;20076;-65
2020/12/19 03:00:52;;;;;;;11.38;8.43;;;;;;;3.85;100.00;100811.34;5014202;28;20121;-65
2020/12/19 03:03:35;;;;;;;13.05;8.75;;;;;;;3.81;100.00;100811.63;5013951;28;20084;-65
2020/12/19 03:06:20;;;;;;;13.95;8.50;;;;;;;3.76;100.00;100819.78;4998977;28;20128;-65
2020/12/19 03:09:04;;;;;;;12.90;8.55;;;;;;;3.70;100.00;100822.78;4985536;28;20481;-65
2020/12/19 03:11:48;;;;;;;10.40;7.85;;;;;;;3.60;100.00;100816.34;5014137;28;20048;-65
2020/12/19 03:14:31;;;;;;;10.98;8.77;;;;;;;3.51;100.00;100811.59;4999159;28;20138;-65
2020/12/19 03:17:16;;;;;;;;;;;;;;;3.43;100.00;100818.25;5013972;28;20133;-65
2020/12/19 03:20:00;;;;;;;12.07;9.30;;;;;;;3.35;100.00;100821.28;5013721;28;20415;-65
2020/12/19 03:22:43;;;;;;;9.32;6.90;;;;;;;3.28;100.00;100814.69;5013871;28;20068;-65
2020/12/19 03:25:27;;;;;;;12.90;8.45;;;;;;;3.22;100.00;100816.78;5013544;28;20053;-65
2020/12/19 03:28:11;;;;;;;11.88;8.52;;;;;;;3.17;100.00;100819.69;4999024;28;20084;-65
2020/12/19 03:30:55;;;;;;;10.27;7.70;;;;;;;3.11;100.00;100816.53;5013068;28;20056;-65
2020/12/19 03:33:39;;;;;;;15.45;9.30;;;;;;;3.08;100.00;100811.44;5013681;28;20129;-65
2020/12/19 03:36:23;;;;;;;15.65;9.20;;;;;;;3.05;100.00;100814.25;5013730;28;20095;-65
2020/12/19 03:39:08;;;;;;;15.65;9.90;;;;;;;3.03;100.00;100810.84;4998983;28;20053;-65
2020/12/19 03:41:52;;;;;;;13.52;8.80;;;;;;;2.99;100.00;100812.81;5013454;28;20053;-65
2020/12/19 03:44:35;;;;;;;14.73;9.38;;;;;;;2.98;100.00;100805.84;5013776;28;20072;-65
2020/12/19 03:47:19;;;;;;;15.52;9.45;;;;;;;2.97;100.00;100801.50;5013599;28;20156;-65
2020/12/19 03:50:05;;;;;;;11.68;8.23;;;;;;;2.96;100.00;100801.56;5013371;28;20048;-65
2020/12/19 03:52:49;;;;;;;10.80;7.75;;;;;;;2.92;100.00;100795.63;4998761;28;20183;-65
2020/12/19 03:55:33;;;;;;;11.02;8.55;;;;;;;2.89;100.00;100797.56;4998421;28;20046;-65
2020/12/19 03:58:17;;;;;;;13.70;9.25;;;;;;;2.83;100.00;100790.03;4998499;28;20104;-65
2020/12/19 04:01:01;;;;;;;12.77;8.55;;;;;;;2.77;100.00;100791.19;5013460;28;20104;-65
2020/12/19 04:03:45;;;;;;;12.95;8.60;;;;;;;2.71;100.00;100783.63;5013552;28;20470;-65
2020/12/19 04:06:29;;;;;;;12.25;8.52;;;;;;;2.65;100.00;100786.56;4998671;28;20442;-65
2020/12/19 04:09:13;;;;;;;13.13;7.82;;;;;;;2.59;100.00;100786.91;4998607;28;20053;-65
2020/12/19 04:11:57;;;;;;;11.43;7.68;;;;;;;2.51;100.00;100783.84;5013431;28;20049;-65
2020/12/19 04:14:41;;;;;;;14.50;9.25;;;;;;;2.44;100.00;100784.25;5013182;28;20092;-64
2020/12/19 04:17:25;;;;;;;14.77;9.50;;;;;;;2.38;100.00;100775.84;5012968;28;20121;-65
2020/12/19 04:20:09;;;;;;;15.57;9.43;;;;;;;2.32;100.00;100781.41;5013377;28;20117;-65
2020/12/19 04:22:53;;;;;;;11.75;8.77;;;;;;;2.27;100.00;100779.00;4998206;28;20549;-65
2020/12/19 04:25:37;;;;;;;13.05;8.98;;;;;;;2.19;100.00;100775.94;4998368;28;20045;-65
2020/12/19 04:28:21;;;;;;;12.13;7.78;;;;;;;2.15;100.00;100773.53;5013081;28;20540;-65
2020/12/19 04:31:05;;;;;;;13.20;8.68;;;;;;;2.08;100.00;100773.00;4998185;28;20053;-64
2020/12/19 04:33:49;;;;;;;14.15;8.60;;;;;;;2.03;100.00;100768.91;4998157;28;20101;-64
2020/12/19 04:36:32;;;;;;;12.35;8.52;;;;;;;1.97;100.00;100764.81;4998032;28;20061;-64
2020/12/19 04:39:16;;;;;;;12.85;9.10;;;;;;;1.89;100.00;100767.00;4984905;28;20049;-64
2020/12/19 04:42:01;;;;;;;14.18;9.23;;;;;;;1.84;100.00;100770.78;5013080;28;20541;-64
2020/12/19 04:44:45;;;;;;;13.98;9.65;;;;;;;1.80;100.00;100763.97;5001978;28;20049;-64
2020/12/19 04:47:29;;;;;;;13.95;9.30;;;;;;;1.77;100.00;100772.03;5001528;28;20107;-65
2020/12/19 04:50:13;;;;;;;;;;;;;;;1.73;100.00;100770.47;5016863;28;20096;-65
2020/12/19 04:52:57;;;;;;;11.27;8.57;;;;;;;1.69;100.00;100764.53;5016859;28;19919;-64
2020/12/19 04:55:42;;;;;;;13.48;8.98;;;;;;;1.66;100.00;100764.66;5001413;28;20137;-65
2020/12/19 04:58:26;;;;;;;12.35;8.93;;;;;;;1.65;100.00;100757.72;5016430;28;20049;-65
2020/12/19 05:01:10;;;;;;;;;;;;;;;1.62;100.00;100763.13;5016829;28;20053;-65
2020/12/19 05:03:55;;;;;;;12.60;8.20;;;;;;;1.59;100.00;100763.28;5016734;28;20008;-65
2020/12/19 05:06:39;;;;;;;11.60;7.82;;;;;;;1.56;100.00;100763.44;5001173;28;20351;-65
2020/12/19 05:09:23;;;;;;;12.55;8.38;;;;;;;1.56;100.00;100765.22;5016046;28;20053;-65
2020/12/19 05:12:12;;;;;;;12.70;8.82;;;;;;;1.56;100.00;100771.31;5016259;28;20061;-65
2020/12/19 05:14:55;;;;;;;12.38;8.68;;;;;;;1.61;100.00;100763.19;5016134;28;20446;-65
2020/12/19 05:17:39;;;;;;;11.13;7.47;;;;;;;1.66;100.00;100762.03;5017418;28;20056;-65
2020/12/19 05:20:26;;;;;;;10.55;7.68;;;;;;;1.71;100.00;100767.94;5015917;28;20064;-65
2020/12/19 05:23:11;;;;;;;12.10;8.02;;;;;;;1.76;100.00;100765.91;5001211;28;20076;-64
2020/12/19 05:25:56;;;;;;;16.70;8.90;;;;;;;1.79;100.00;100757.91;5000767;28;20179;-63
2020/12/19 05:28:42;;;;;;;13.48;8.98;;;;;;;1.84;100.00;100760.25;5015652;28;20048;-64
2020/12/19 05:31:26;;;;;;;14.82;9.27;;;;;;;1.83;100.00;100758.56;5015888;28;20457;-64
2020/12/19 05:34:12;;;;;;;15.43;9.85;;;;;;;1.86;100.00;100756.63;4987262;28;20104;-64
2020/12/19 05:36:56;;;;;;;24.85;14.43;;;;;;;1.91;100.00;100751.13;5015494;28;20053;-65
2020/12/19 05:39:50;;;;;;;55.00;27.48;;;;;;;1.99;100.00;100762.97;4987080;28;20100;-65
2020/12/19 05:42:36;;;;;;;21.38;9.80;;;;;;;2.06;100.00;100774.88;5000751;28;20045;-65
2020/12/19 05:45:21;;;;;;;11.40;7.70;;;;;;;2.03;100.00;100775.03;5015540;28;20049;-65
2020/12/19 05:48:06;;;;;;;13.70;8.93;;;;;;;1.98;100.00;100771.78;5000765;28;20044;-65
2020/12/19 05:50:49;;;;;;;13.07;9.45;;;;;;;1.98;100.00;100779.66;5015266;28;20056;-64
2020/12/19 05:53:34;;;;;;;16.40;10.15;;;;;;;1.99;100.00;100778.72;5015496;28;20088;-65
2020/12/19 05:56:20;;;;;;;14.55;9.63;;;;;;;1.98;100.00;100782.28;4986112;28;20080;-65
2020/12/19 05:59:04;;;;;;;12.98;8.35;;;;;;;1.97;100.00;100791.09;5000238;28;20048;-65
2020/12/19 06:01:49;;;;;;;12.27;8.10;;;;;;;1.91;100.00;100791.44;5000371;28;20084;-65
2020/12/19 06:04:33;;;;;;;12.40;9.00;;;;;;;1.82;100.00;100776.13;5000444;28;20065;-65
2020/12/19 06:07:18;;;;;;;21.02;10.30;;;;;;;1.75;100.00;100769.47;5000322;28;20458;-65
2020/12/19 06:10:07;;;;;;;14.40;8.75;;;;;;;1.71;100.00;100782.84;5015419;28;20081;-65
2020/12/19 06:12:55;;;;;;;17.30;9.48;;;;;;;1.67;100.00;100782.13;5000023;28;20040;-65
2020/12/19 06:16:07;;;;;;;13.73;8.50;;;;;;;1.62;100.00;100781.53;5014699;28;20064;-65
2020/12/19 06:18:53;;;;;;;12.65;9.00;;;;;;;1.58;100.00;100785.22;5014697;28;20528;-65
2020/12/19 06:21:38;;;;;;;12.32;8.57;;;;;;;1.53;100.00;100779.34;5014595;28;20092;-64
2020/12/19 06:24:44;;;;;;;12.65;8.57;;;;;;;1.47;100.00;100773.56;5014588;28;20048;-65
2020/12/19 06:27:28;;;;;;;11.15;8.07;;;;;;;1.41;100.00;100774.72;4999667;28;20049;-65
2020/12/19 06:30:28;;;;;;;13.27;9.32;;;;;;;1.34;100.00;100783.81;5014800;28;20053;-65
2020/12/19 06:33:16;;;;;;;13.00;8.77;;;;;;;1.30;100.00;100781.41;5014898;28;20072;-65
2020/12/19 06:36:03;;;;;;;13.73;8.50;;;;;;;1.25;100.00;100779.00;4999685;28;20044;-65
2020/12/19 06:38:52;;;;;;;13.50;9.43;;;;;;;1.22;100.00;100779.16;5000010;28;20121;-65
2020/12/19 06:41:46;;;;;;;14.90;9.05;;;;;;;1.20;100.00;100778.38;4999493;28;20510;-65
2020/12/19 06:44:32;;;;;;;11.25;8.20;;;;;;;1.20;100.00;100785.38;4999749;28;20100;-65
2020/12/19 06:47:19;;;;;;;12.68;8.98;;;;;;;1.16;100.00;100784.69;4999710;28;20044;-65
2020/12/19 06:50:03;;;;;;;13.80;8.00;;;;;;;1.17;100.00;100790.78;5000256;28;20157;-64
2020/12/19 06:53:14;;;;;;;13.52;9.60;;;;;;;1.10;100.00;100792.00;4999484;28;20096;-65
2020/12/19 06:55:58;;;;;;;12.48;8.65;;;;;;;1.15;100.00;100790.84;4999480;28;20099;-65
2020/12/19 06:58:42;;;;;;;16.35;9.55;;;;;;;1.12;100.00;100788.38;4999413;28;20090;-65
2020/12/19 07:01:30;;;;;;;;;;;;;;;1.09;100.00;100785.91;4999538;28;20057;-65
2020/12/19 07:04:44;;;;;;;14.30;9.55;;;;;;;1.11;100.00;100796.31;5014229;28;19936;-65
2020/12/19 07:07:28;;;;;;;13.48;8.77;;;;;;;1.02;100.00;100802.00;5005633;28;20044;-65
2020/12/19 07:10:13;;;;;;;11.82;8.27;;;;;;;0.97;100.00;100801.38;5013957;28;20524;-65
2020/12/19 07:12:57;;;;;;;13.00;8.55;;;;;;;0.98;100.00;100797.84;5014097;28;20549;-65
2020/12/19 07:15:51;;;;;;;13.23;9.10;;;;;;;0.96;100.00;100794.44;4998888;28;20084;-64
2020/12/19 07:18:39;;;;;;;13.90;8.75;;;;;;;0.93;100.00;100803.28;4985147;28;20048;-65
2020/12/19 07:21:23;;;;;;;17.83;10.88;;;;;;;0.97;100.00;100804.88;4999729;28;20113;-65
2020/12/19 07:24:07;;;;;;;13.80;9.30;;;;;;;0.98;100.00;100806.56;5013679;28;20049;-65
2020/12/19 07:26:51;;;;;;;17.00;8.65;;;;;;;0.98;100.00;100800.47;4998705;28;20044;-65
2020/12/19 07:29:35;;;;;;;14.05;7.65;;;;;;;0.99;100.00;100800.41;5013600;28;20156;-64
2020/12/19 07:32:19;;;;;;;13.00;8.30;;;;;;;0.98;100.00;100800.47;4998831;28;20049;-65
2020/12/19 07:35:03;;;;;;;12.45;8.52;;;;;;;0.98;100.00;100801.31;4998945;28;20544;-65
2020/12/19 07:37:49;;;;;;;9.68;7.20;;;;;;;0.97;100.00;100804.00;5013788;28;20049;-65
2020/12/19 07:40:33;;;;;;;10.88;7.47;;;;;;;0.96;100.00;100824.13;4998525;28;20053;-65
2020/12/19 07:43:17;;;;;;;10.18;7.60;;;;;;;0.95;100.00;100827.69;4998496;28;20097;-65
2020/12/19 07:46:01;;;;;;;;;;;;;;;0.96;100.00;100826.78;4999355;28;20048;-65
2020/12/19 07:48:53;;;;;;;10.73;7.55;;;;;;;1.02;100.00;100833.50;4999036;28;19920;-62
2020/12/19 07:51:37;;;;;;;10.18;7.30;;;;;;;1.02;100.00;100831.75;4998763;28;20553;-65
2020/12/19 07:54:22;;;;;;;10.20;7.32;;;;;;;1.05;100.00;100826.34;4998475;28;20053;-65
2020/12/19 07:57:06;;;;;;;12.88;8.30;;;;;;;1.05;100.00;100833.38;5013488;28;20113;-64
2020/12/19 07:59:52;;;;;;;11.35;8.13;;;;;;;1.08;100.00;100836.72;5013560;28;20133;-65
2020/12/19 08:02:37;;;;;;;11.48;7.80;;;;;;;1.14;100.00;100828.53;5013483;28;20411;-65
2020/12/19 08:05:21;;;;;;;11.65;7.97;;;;;;;1.22;100.00;100830.81;4998699;28;20049;-65
2020/12/19 08:08:05;;;;;;;9.70;7.07;;;;;;;1.30;100.00;100834.78;4998547;28;20056;-65
2020/12/19 08:10:49;;;;;;;12.30;6.40;;;;;;;1.37;100.00;100840.59;5013470;28;20052;-65
2020/12/19 08:13:34;;;;;;;10.70;7.13;;;;;;;1.43;100.00;100837.66;5013165;28;20088;-65
2020/12/19 08:16:18;;;;;;;8.60;6.95;;;;;;;1.50;100.00;100824.19;4998131;28;20057;-65
2020/12/19 08:19:02;;;;;;;9.52;6.90;;;;;;;1.62;100.00;100841.97;4987668;28;20538;-63
2020/12/19 08:21:47;;;;;;;9.73;6.80;;;;;;;1.72;100.00;100832.72;5002271;28;20041;-64
2020/12/19 08:24:31;;;;;;;10.70;7.38;;;;;;;1.91;100.00;100837.91;5002264;28;20104;-65
2020/12/19 08:27:40;;;;;;;12.40;7.20;;;;;;;2.44;100.00;100845.59;5001894;28;20133;-64
2020/12/19 08:30:24;;;;;;;7.90;5.85;;;;;;;4.05;100.00;100824.22;5016814;28;20414;-65
2020/12/19 08:33:10;;;;;;;;;;;;;;;6.12;100.00;100822.38;5017175;28;20169;-65
2020/12/19 08:35:54;;;;;;;6.70;4.95;;;;;;;8.28;83.08;100815.44;5016702;28;20293;-65
2020/12/19 08:38:38;;;;;;;11.20;5.22;;;;;;;10.22;70.68;100813.78;5001749;28;20132;-65
2020/12/19 08:41:23;;;;;;;8.20;5.05;;;;;;;11.91;61.34;100809.34;5016433;28;20104;-65
2020/12/19 08:44:23;;;;;;;6.30;5.03;;;;;;;13.38;56.33;100809.41;5016861;28;20053;-65
2020/12/19 08:47:07;;;;;;;7.50;5.32;;;;;;;14.78;53.08;100822.03;5001625;28;20095;-66
2020/12/19 08:49:52;;;;;;;7.88;5.40;;;;;;;15.76;46.50;100814.13;4987897;28;20053;-66
2020/12/19 08:52:36;;;;;;;7.53;6.15;;;;;;;16.89;44.75;100807.78;5016579;28;20557;-65
2020/12/19 08:55:23;;;;;;;12.00;9.00;;;;;;;17.90;42.87;100807.75;5001394;28;20517;-66
2020/12/19 08:58:08;;;;;;;9.57;6.53;;;;;;;18.81;40.45;100828.31;5001711;28;20514;-65
2020/12/19 09:01:16;;;;;;;10.90;6.85;;;;;;;19.65;39.43;100817.91;5001656;28;20076;-66
2020/12/19 09:04:07;;;;;;;7.35;5.25;;;;;;;20.40;36.90;100817.31;5016191;28;20426;-66
2020/12/19 09:06:55;;;;;;;14.85;6.70;;;;;;;21.10;36.02;100820.00;5001360;28;20052;-66
2020/12/19 09:09:39;;;;;;;16.70;6.82;;;;;;;21.90;34.31;100819.22;5001946;28;20056;-65
2020/12/19 09:12:23;;;;;;;6.65;6.05;;;;;;;22.30;32.53;100824.53;5016440;28;20049;-66
2020/12/19 09:15:16;;;;;;;6.60;6.00;;;;;;;20.54;34.18;100831.84;5016004;28;20053;-64
2020/12/19 09:18:21;;;;;;;9.50;6.70;;;;;;;17.33;40.31;100833.28;5015794;28;20052;-65
2020/12/19 09:21:08;;;;;;;6.72;6.13;;;;;;;15.17;46.09;100847.41;5015733;28;20057;-65
2020/12/19 09:23:51;;;;;;;6.65;5.95;;;;;;;13.56;50.19;100837.09;5001446;28;20049;-64
2020/12/19 09:26:35;;;;;;;8.65;7.28;;;;;;;12.50;54.60;100849.28;5015986;28;20080;-64
2020/12/19 09:29:19;;;;;;;8.40;6.50;;;;;;;11.50;57.42;100841.56;5014838;28;20056;-65
2020/12/19 09:32:03;;;;;;;6.82;6.15;;;;;;;10.86;60.84;100849.97;5015944;28;20133;-65
2020/12/19 09:34:47;;;;;;;7.45;6.07;;;;;;;10.19;63.60;100862.00;5015869;28;20080;-65
2020/12/19 09:37:31;;;;;;;9.18;7.07;;;;;;;9.41;66.91;100862.28;5000839;28;20108;-65
2020/12/19 09:40:15;;;;;;;7.43;6.72;;;;;;;8.99;70.48;100868.34;5000932;28;20052;-64
2020/12/19 09:42:59;;;;;;;7.78;6.55;;;;;;;8.54;73.56;100866.59;5000514;28;20454;-65
2020/12/19 09:45:43;;;;;;;10.10;7.32;;;;;;;8.16;76.67;100865.94;5000759;28;20053;-65
2020/12/19 09:48:27;;;;;;;8.45;6.53;;;;;;;8.06;77.48;100870.22;5015429;28;20149;-64
2020/12/19 09:51:11;;;;;;;7.20;6.50;;;;;;;7.79;79.26;100861.63;5015508;28;20053;-65
2020/12/19 09:53:55;;;;;;;9.10;7.20;;;;;;;7.52;81.62;100866.31;5015526;28;20051;-65
2020/12/19 09:56:40;;;;;;;7.75;6.95;;;;;;;7.26;84.08;100867.31;5015030;28;20052;-65
2020/12/19 09:59:24;;;;;;;9.60;7.57;;;;;;;7.16;86.35;100871.56;5000371;28;20049;-64
2020/12/19 10:02:07;;;;;;;9.82;7.10;;;;;;;7.18;86.83;100861.72;4986383;28;20069;-64
2020/12/19 10:04:51;;;;;;;7.65;6.72;;;;;;;7.06;87.19;100869.69;5015497;28;20137;-65
2020/12/19 10:07:35;;;;;;;9.18;7.47;;;;;;;7.14;87.44;100852.28;5000311;28;20077;-65
2020/12/19 10:10:20;;;;;;;8.93;7.47;;;;;;;7.05;89.58;100858.22;5014855;28;20060;-65
2020/12/19 10:13:04;;;;;;;9.32;7.20;;;;;;;7.22;87.84;100849.94;5000299;28;20049;-65
2020/12/19 10:15:47;;;;;;;9.15;7.95;;;;;;;7.29;88.60;100855.66;5015046;28;20080;-64
2020/12/19 10:18:31;;;;;;;10.00;7.30;;;;;;;7.31;87.11;100849.28;5014681;28;20521;-65
2020/12/19 10:21:15;;;;;;;8.05;6.97;;;;;;;7.21;87.90;100848.25;5014922;28;20100;-63
2020/12/19 10:23:59;;;;;;;6.90;6.20;;;;;;;7.35;88.82;100855.19;5000103;28;20096;-65
2020/12/19 10:26:47;;;;;;;7.40;6.40;;;;;;;7.46;88.17;100853.47;5014778;28;20525;-64
2020/12/19 10:29:31;;;;;;;8.32;6.68;;;;;;;7.44;89.54;100852.75;5000022;28;20529;-64
2020/12/19 10:32:16;;;;;;;9.27;7.53;;;;;;;7.58;90.00;100834.00;5014523;28;20065;-64
2020/12/19 10:35:03;;;;;;;8.45;7.10;;;;;;;7.73;90.29;100839.03;5014577;28;20048;-64
2020/12/19 10:37:47;;;;;;;8.63;7.28;;;;;;;7.93;86.66;100838.44;5014649;28;20076;-63
2020/12/19 10:40:31;;;;;;;8.85;7.63;;;;;;;7.82;88.27;100829.59;5014265;28;20049;-64
2020/12/19 10:43:16;;;;;;;10.65;8.32;;;;;;;7.50;87.93;100844.31;5014466;28;20057;-64
2020/12/19 10:46:01;;;;;;;9.57;8.05;;;;;;;7.32;90.35;100837.72;4999570;28;20053;-64
2020/12/19 10:48:45;;;;;;;11.25;7.85;;;;;;;7.44;90.64;100834.19;4999901;28;20053;-63
2020/12/19 10:51:29;;;;;;;9.18;7.75;;;;;;;7.56;89.86;100838.59;5014434;28;20521;-64
2020/12/19 10:54:14;;;;;;;10.25;7.90;;;;;;;7.65;91.56;100827.31;5014547;28;20080;-64
2020/12/19 10:56:59;;;;;;;10.50;8.20;;;;;;;7.83;89.82;100826.78;5014291;28;20048;-65
2020/12/19 10:59:43;;;;;;;13.15;8.63;;;;;;;8.04;89.10;100814.56;4999607;28;20092;-65
2020/12/19 11:02:26;;;;;;;9.43;7.90;;;;;;;8.26;87.19;100808.53;5013875;28;20422;-65
2020/12/19 11:05:11;;;;;;;12.30;8.57;;;;;;;8.64;85.94;100812.59;5014152;28;20049;-65
2020/12/19 11:07:55;;;;;;;13.02;8.98;;;;;;;8.96;84.17;100799.44;5014208;28;20102;-65
2020/12/19 11:10:42;;;;;;;11.15;7.65;;;;;;;9.56;82.99;100783.88;5014113;28;20076;-64
2020/12/19 11:13:26;;;;;;;13.85;9.18;;;;;;;10.85;78.19;100787.78;5014094;28;20072;-64
2020/12/19 11:16:10;;;;;;;10.27;8.48;;;;;;;11.92;69.81;100768.28;5000295;28;20056;-65
2020/12/19 11:18:55;;;;;;;9.32;8.23;;;;;;;13.17;65.62;100770.50;4985202;28;20616;-65
2020/12/19 11:21:44;;;;;;;9.05;7.55;;;;;;;15.27;57.02;100751.44;5013618;28;20048;-65
2020/12/19 11:24:28;;;;;;;10.85;8.68;;;;;;;15.63;54.76;100756.47;4999096;28;20494;-66
2020/12/19 11:27:12;;;;;;;13.95;9.48;;;;;;;15.32;54.97;100747.31;5013544;28;20044;-66
2020/12/19 11:29:56;;;;;;;45.35;27.50;;;;;;;14.95;57.27;100743.25;5013956;28;20414;-66
2020/12/19 11:32:41;;;;;;;15.05;10.77;;;;;;;14.86;56.34;100750.44;4998961;28;20415;-65
2020/12/19 11:35:25;;;;;;;9.90;8.02;;;;;;;13.79;59.20;100743.75;4998749;28;20081;-64
2020/12/19 11:38:08;;;;;;;11.35;9.20;;;;;;;13.32;61.70;100742.22;5013507;28;20055;-65
2020/12/19 11:40:53;;;;;;;12.73;9.68;;;;;;;12.96;64.45;100740.47;4998675;28;20053;-64
2020/12/19 11:43:37;;;;;;;13.52;8.98;;;;;;;13.93;60.07;100737.81;5013732;28;20072;-65
2020/12/19 11:46:21;;;;;;;13.18;9.18;;;;;;;12.92;62.00;100742.56;4998637;28;20111;-65
2020/12/19 11:49:05;;;;;;;11.73;9.70;;;;;;;13.18;63.36;100742.75;4998701;28;20100;-65
2020/12/19 11:51:50;;;;;;;13.32;9.80;;;;;;;13.69;60.56;100738.44;5013348;28;20096;-65
2020/12/19 11:54:33;;;;;;;11.70;9.65;;;;;;;13.44;60.67;100730.31;5002610;28;20406;-65
2020/12/19 11:57:18;;;;;;;13.70;10.45;;;;;;;12.73;63.34;100716.88;5002641;28;20557;-65
2020/12/19 12:00:02;;;;;;;11.50;9.75;;;;;;;11.31;68.53;100732.06;5017595;28;20099;-65
2020/12/19 12:02:46;;;;;;;11.93;9.23;;;;;;;10.83;72.97;100731.06;5017314;28;20045;-64
2020/12/19 12:05:30;;;;;;;14.38;9.82;;;;;;;10.75;74.69;100720.22;5017392;28;20483;-65
2020/12/19 12:08:15;;;;;;;12.35;9.88;;;;;;;11.27;72.69;100709.28;5017162;28;20129;-64
2020/12/19 12:10:59;;;;;;;35.70;19.25;;;;;;;12.06;71.58;100711.72;5002355;28;20095;-66
2020/12/19 12:13:44;;;;;;;13.70;10.45;;;;;;;13.04;65.54;100737.91;5017364;28;20454;-65
2020/12/19 12:16:27;;;;;;;11.65;10.00;;;;;;;12.74;65.29;100730.13;5017205;28;20108;-67
2020/12/19 12:19:11;;;;;;;37.45;21.10;;;;;;;12.36;68.00;100730.22;5017271;28;20099;-66
2020/12/19 12:21:56;;;;;;;12.35;10.02;;;;;;;11.98;68.83;100718.75;5017021;28;20044;-66
2020/12/19 12:24:40;;;;;;;74.25;46.10;;;;;;;12.13;70.85;100706.63;5002298;28;20092;-66
2020/12/19 12:27:24;;;;;;;28.48;19.10;;;;;;;13.68;64.67;100691.22;5016825;28;20160;-65
2020/12/19 12:30:09;;;;;;;26.50;18.05;;;;;;;14.14;62.05;100701.66;5002243;28;20104;-65
2020/12/19 12:32:53;;;;;;;18.08;11.45;;;;;;;13.21;63.21;100739.75;5016733;28;20105;-65
2020/12/19 12:35:37;;;;;;;13.75;10.75;;;;;;;12.21;67.84;100722.81;5016657;28;20104;-66
2020/12/19 12:38:21;;;;;;;17.02;13.18;;;;;;;11.44;71.94;100713.09;5002090;28;20053;-64
2020/12/19 12:41:06;;;;;;;13.90;10.25;;;;;;;10.88;74.77;100720.81;5002007;28;20100;-65
2020/12/19 12:43:50;;;;;;;14.52;11.80;;;;;;;10.56;78.15;100685.47;5001937;28;20045;-66